Time;durP1;ratioP1;P1;durP2;ratioP2;P2;SDS_P1;SDS_P2;PMS_P1;PMS_P2;Temp;Humidity;BMP_temperature;BMP_pressure;BME280_temperature;BME280_humidity;BME280_pressure;Samples;Min_cycle;Max_cycle;Signal;HPM_P1;HPM_P2
2023/01/26 00:02:16;;;;;;;;;4.00;4.00;;;;;20.09;55.24;101723.67;112084;1264;20621;-38
2023/01/26 00:04:44;;;;;;;;;4.00;4.00;;;;;20.09;55.34;101719.52;112084;1249;20335;-38
2023/01/26 00:07:11;;;;;;;;;3.00;3.00;;;;;20.09;55.25;101714.07;112078;1249;20040;-38
2023/01/26 00:09:38;;;;;;;;;3.00;3.00;;;;;20.10;55.34;101708.77;112078;1257;20724;-38
2023/01/26 00:12:06;;;;;;;;;6.33;4.67;;;;;20.09;55.28;101705.39;112073;1250;19660;-38
2023/01/26 00:14:48;;;;;;;;;3.00;3.00;;;;;20.09;55.31;101701.23;112131;1249;20061;-38
2023/01/26 00:17:15;;;;;;;;;4.00;3.00;;;;;20.09;55.31;101699.73;112057;1249;20741;-38
2023/01/26 00:19:43;;;;;;;;;6.00;4.00;;;;;20.09;55.38;101697.77;112090;1257;19517;-38
2023/01/26 00:22:10;;;;;;;;;3.00;3.00;;;;;20.09;55.26;101700.33;112082;1251;20085;-38
2023/01/26 00:24:37;;;;;;;;;3.00;3.00;;;;;20.09;55.22;101696.16;112097;1249;20920;-38
2023/01/26 00:27:05;;;;;;;;;3.33;3.33;;;;;20.09;55.07;101693.99;112074;1251;18668;-38
2023/01/26 00:29:32;;;;;;;;;3.00;3.00;;;;;20.09;55.20;101693.65;112092;1249;19892;-38
2023/01/26 00:31:59;;;;;;;;;3.00;3.00;;;;;20.08;55.17;101692.96;112097;1264;19366;-38
2023/01/26 00:34:26;;;;;;;;;3.00;3.00;;;;;20.08;55.23;101689.19;112086;1250;19619;-38
2023/01/26 00:36:54;;;;;;;;;3.00;3.00;;;;;20.09;55.15;101687.83;112104;1249;20847;-38
2023/01/26 00:39:21;;;;;;;;;4.00;4.00;;;;;20.09;55.01;101686.16;112132;1264;19339;-37
2023/01/26 00:42:08;;;;;;;;;4.00;4.00;;;;;20.09;55.08;101690.73;112097;1257;19479;-38
2023/01/26 00:44:36;;;;;;;;;4.00;4.00;;;;;20.08;55.15;101688.61;112074;1251;19946;-38
2023/01/26 00:47:03;;;;;;;;;4.00;4.00;;;;;20.07;55.08;101688.16;112103;1264;19356;-38
2023/01/26 00:49:30;;;;;;;;;3.00;3.00;;;;;20.07;55.10;101688.60;112075;1249;19664;-39
2023/01/26 00:51:57;;;;;;;;;4.00;3.00;;;;;20.08;55.18;101690.13;112088;1250;20238;-38
2023/01/26 00:54:25;;;;;;;;;4.00;3.00;;;;;20.07;55.01;101687.98;112077;1250;20789;-37
2023/01/26 00:56:52;;;;;;;;;4.00;3.00;;;;;20.07;54.92;101687.79;112109;1249;18709;-39
2023/01/26 00:59:19;;;;;;;;;4.00;3.00;;;;;20.08;55.02;101687.41;112189;1249;20102;-38
2023/01/26 01:01:47;;;;;;;;;3.00;3.00;;;;;20.07;54.87;101682.02;112112;1264;20549;-39
2023/01/26 01:04:14;;;;;;;;;6.00;4.00;;;;;20.06;55.00;101680.45;112111;1264;18781;-39
2023/01/26 01:06:41;;;;;;;;;3.00;3.00;;;;;20.06;55.09;101680.80;112101;1249;20096;-38
2023/01/26 01:09:09;;;;;;;;;6.00;4.00;;;;;20.07;54.95;101675.49;112086;1250;20780;-37
2023/01/26 01:11:36;;;;;;;;;3.00;3.00;;;;;20.06;55.12;101670.69;112083;1249;18738;-39
2023/01/26 01:14:03;;;;;;;;;4.00;4.00;;;;;20.07;54.92;101663.12;112085;1264;19956;-38
2023/01/26 01:16:31;;;;;;;;;3.00;3.00;;;;;20.07;54.96;101664.08;112070;1264;20748;-39
2023/01/26 01:18:58;;;;;;;;;3.00;3.00;;;;;20.06;54.96;101663.76;112070;1251;19631;-38
2023/01/26 01:21:25;;;;;;;;;3.00;3.00;;;;;20.07;54.91;101654.10;112089;1249;20080;-39
2023/01/26 01:23:53;;;;;;;;;3.00;3.00;;;;;20.07;54.97;101658.65;112090;1264;19328;-39
2023/01/26 01:26:20;;;;;;;;;6.00;4.00;;;;;20.06;54.88;101662.53;112072;1249;19604;-39
2023/01/26 01:28:47;;;;;;;;;3.00;3.00;;;;;20.05;54.90;101653.55;112076;1264;18661;-38
2023/01/26 01:31:15;;;;;;;;;4.00;4.00;;;;;20.05;54.88;101650.65;112066;1264;19236;-38
2023/01/26 01:33:42;;;;;;;;;5.00;5.00;;;;;20.07;54.80;101652.50;112060;1257;19526;-38
2023/01/26 01:36:09;;;;;;;;;4.00;3.00;;;;;20.07;54.82;101648.32;112095;1264;18616;-38
2023/01/26 01:38:36;;;;;;;;;4.00;4.00;;;;;20.05;54.89;101647.55;112078;1264;19473;-38
2023/01/26 01:41:04;;;;;;;;;4.00;3.50;;;;;20.05;54.74;101643.77;112101;1249;18262;-38
2023/01/26 01:43:31;;;;;;;;;6.00;4.00;;;;;20.05;54.78;101640.84;112090;1264;21430;-38
2023/01/26 01:45:58;;;;;;;;;3.00;3.00;;;;;20.04;54.83;101639.09;112099;1249;20781;-38
2023/01/26 01:48:26;;;;;;;;;4.00;3.00;;;;;20.04;55.03;101635.71;112103;1264;18188;-38
2023/01/26 01:50:53;;;;;;;;;3.00;3.00;;;;;20.05;54.87;101642.64;112091;1256;21392;-38
2023/01/26 01:53:23;;;;;;;;;3.00;3.00;;;;;20.04;54.80;101640.89;112075;1264;20695;-38
2023/01/26 01:55:50;;;;;;;;;6.00;4.00;;;;;20.04;54.73;101637.69;112079;1249;19671;-37
2023/01/26 01:58:18;;;;;;;;;4.00;3.00;;;;;20.04;54.82;101634.19;112092;1251;19929;-39
2023/01/26 02:00:45;;;;;;;;;4.00;3.00;;;;;20.05;54.72;101630.19;112099;1250;21054;-38
2023/01/26 02:03:13;;;;;;;;;3.00;3.00;;;;;20.04;55.00;101629.00;112105;1264;19569;-37
2023/01/26 02:05:40;;;;;;;;;6.00;4.00;;;;;20.05;54.84;101632.02;112096;1249;20206;-39
2023/01/26 02:08:08;;;;;;;;;4.00;4.00;;;;;20.03;54.70;101627.59;112103;1264;19369;-39
2023/01/26 02:10:36;;;;;;;;;3.00;3.00;;;;;20.03;54.88;101620.91;112100;1257;19618;-38
2023/01/26 02:13:03;;;;;;;;;3.00;3.00;;;;;20.03;54.64;101617.23;112094;1264;18720;-38
2023/01/26 02:15:31;;;;;;;;;6.00;4.00;;;;;20.03;54.88;101613.63;112118;1264;19350;-38
2023/01/26 02:17:58;;;;;;;;;3.50;3.00;;;;;20.02;54.63;101609.94;112084;1251;19638;-37
2023/01/26 02:20:27;;;;;;;;;7.00;6.00;;;;;20.03;54.75;101610.73;112062;1264;18656;-38
2023/01/26 02:22:54;;;;;;;;;4.00;4.00;;;;;20.03;54.83;101607.29;112088;1264;19416;-38
2023/01/26 02:25:21;;;;;;;;;4.00;3.50;;;;;20.03;54.86;101604.61;112059;1264;18306;-39
2023/01/26 02:27:49;;;;;;;;;4.00;3.00;;;;;20.02;54.76;101597.94;112058;1264;21106;-38
2023/01/26 02:30:16;;;;;;;;;4.00;4.00;;;;;20.02;54.74;101594.67;112100;1257;19363;-38
2023/01/26 02:32:43;;;;;;;;;3.33;3.33;;;;;20.03;54.67;101593.17;112094;1264;19876;-38
2023/01/26 02:35:11;;;;;;;;;3.00;3.00;;;;;20.02;54.81;101587.23;112101;1250;20114;-38
2023/01/26 02:37:38;;;;;;;;;4.00;3.00;;;;;20.01;54.85;101584.63;112086;1264;19505;-38
2023/01/26 02:40:05;;;;;;;;;4.00;3.67;;;;;20.01;54.79;101583.85;112041;1264;19522;-38
2023/01/26 02:42:40;;;;;;;;;4.00;4.00;;;;;20.01;54.56;101588.55;112093;1256;18670;-37
2023/01/26 02:45:07;;;;;;;;;3.50;3.50;;;;;20.02;54.56;101585.83;112104;1264;19255;-39
2023/01/26 02:47:35;;;;;;;;;4.00;4.00;;;;;20.02;54.70;101584.54;112083;1257;18769;-38
2023/01/26 02:50:02;;;;;;;;;3.00;3.00;;;;;20.01;54.61;101582.08;112094;1264;18833;-38
2023/01/26 02:52:30;;;;;;;;;4.00;4.00;;;;;20.01;54.74;101584.57;112084;1264;19500;-39
2023/01/26 02:57:42;;;;;;;;;6.00;6.00;;;;;20.00;54.52;101578.30;112076;1264;19968;-37
2023/01/26 03:00:10;;;;;;;;;4.00;3.00;;;;;20.00;54.47;101572.72;112088;1264;19297;-38
2023/01/26 03:02:37;;;;;;;;;3.00;3.00;;;;;20.00;54.54;101568.91;112100;1248;19666;-38
2023/01/26 03:05:04;;;;;;;;;3.33;3.00;;;;;20.00;54.50;101565.86;112087;1264;18591;-37
2023/01/26 03:07:32;;;;;;;;;4.00;4.00;;;;;19.99;54.51;101556.89;112103;1264;19357;-39
2023/01/26 03:09:59;;;;;;;;;4.00;4.00;;;;;19.99;54.45;101556.89;112078;1249;19634;-38
2023/01/26 03:12:26;;;;;;;;;6.00;4.00;;;;;19.98;54.40;101558.36;112099;1264;18509;-38
2023/01/26 03:17:35;;;;;;;;;6.00;3.00;;;;;19.98;54.40;101549.13;112081;1249;19663;-38
2023/01/26 03:28:21;;;;;;;;;4.00;4.00;;;;;19.99;54.53;101546.18;112092;1249;21282;-38
2023/01/26 03:30:48;;;;;;;;;4.00;3.00;;;;;19.99;54.47;101541.05;112103;1249;20744;-38
2023/01/26 03:33:15;;;;;;;;;3.00;3.00;;;;;19.98;54.62;101539.34;112080;1257;19515;-39
2023/01/26 03:35:43;;;;;;;;;3.00;3.00;;;;;19.99;54.53;101541.30;112091;1264;18636;-38
2023/01/26 03:38:10;;;;;;;;;4.00;4.00;;;;;19.99;54.51;101544.20;112148;1249;19377;-40
2023/01/26 03:57:06;;;;;;;;;7.00;7.00;;;;;19.97;54.27;101518.94;112065;1264;20570;-38
2023/01/26 03:59:39;;;;;;;;;4.00;3.00;;;;;19.97;54.40;101515.55;112104;1264;18638;-39
2023/01/26 04:10:22;;;;;;;;;3.00;3.00;;;;;19.97;54.39;101508.08;112082;1264;19480;-38
2023/01/26 04:23:48;;;;;;;;;3.00;3.00;;;;;19.97;54.27;101489.23;112090;1264;19933;-37
2023/01/26 04:26:15;;;;;;;;;4.00;4.00;;;;;19.96;54.25;101496.38;112064;1257;20687;-37
2023/01/26 04:28:43;;;;;;;;;6.00;3.00;;;;;19.96;54.40;101498.38;112089;1249;19744;-38
2023/01/26 04:31:10;;;;;;;;;3.00;3.00;;;;;19.96;54.15;101501.30;112054;1264;18496;-38
2023/01/26 04:33:37;;;;;;;;;6.00;3.33;;;;;19.96;54.23;101502.56;112087;1250;20758;-38
2023/01/26 04:36:05;;;;;;;;;3.00;3.00;;;;;19.95;54.49;101496.16;112070;1249;19448;-38
2023/01/26 04:38:32;;;;;;;;;3.00;3.00;;;;;19.95;54.27;101491.98;112091;1260;20138;-38
2023/01/26 04:40:59;;;;;;;;;3.00;3.00;;;;;19.96;54.44;101491.61;112067;1264;20652;-38
2023/01/26 04:43:27;;;;;;;;;6.00;4.00;;;;;19.96;54.37;101491.34;112089;1249;19610;-38
2023/01/26 04:45:54;;;;;;;;;4.00;4.00;;;;;19.96;54.14;101492.25;112081;1264;19960;-38
2023/01/26 04:48:21;;;;;;;;;3.00;3.00;;;;;19.96;54.22;101492.39;112088;1264;19359;-38
2023/01/26 04:50:49;;;;;;;;;4.00;3.00;;;;;19.96;54.38;101492.52;112102;1264;18810;-38
2023/01/26 04:53:17;;;;;;;;;6.67;4.00;;;;;19.96;54.14;101488.89;112084;1261;20072;-38
2023/01/26 04:55:44;;;;;;;;;3.00;3.00;;;;;19.94;54.27;101484.41;112084;1264;19368;-38
2023/01/26 04:58:12;;;;;;;;;3.00;3.00;;;;;19.95;54.13;101487.93;112060;1257;20843;-37
2023/01/26 05:00:39;;;;;;;;;3.50;3.00;;;;;19.95;54.13;101485.85;112061;1250;20062;-38
2023/01/26 05:03:06;;;;;;;;;3.50;3.00;;;;;19.95;54.29;101483.58;112094;1249;20844;-38
2023/01/26 05:05:34;;;;;;;;;4.00;4.00;;;;;19.95;54.33;101478.16;112094;1257;19537;-38
2023/01/26 05:08:01;;;;;;;;;4.00;4.00;;;;;19.95;54.13;101475.79;112051;1264;18644;-40
2023/01/26 05:10:28;;;;;;;;;4.00;4.00;;;;;19.95;54.24;101476.36;112071;1264;20940;-38
2023/01/26 05:12:56;;;;;;;;;4.00;3.00;;;;;19.94;54.28;101474.80;112060;1264;18727;-37
2023/01/26 05:15:23;;;;;;;;;5.33;3.00;;;;;19.95;54.18;101467.11;112111;1264;18600;-39
2023/01/26 05:17:50;;;;;;;;;5.33;3.67;;;;;19.94;54.10;101467.35;112069;1249;20716;-38
2023/01/26 05:20:17;;;;;;;;;4.00;3.00;;;;;19.94;54.29;101465.95;112078;1257;18176;-38
2023/01/26 05:22:45;;;;;;;;;6.00;6.00;;;;;19.94;54.10;101465.17;112084;1250;20120;-38
2023/01/26 05:25:12;;;;;;;;;6.00;6.00;;;;;19.94;53.96;101460.27;112087;1264;21016;-39
2023/01/26 05:27:39;;;;;;;;;6.00;4.00;;;;;19.96;54.13;101461.88;112113;1249;19636;-38
2023/01/26 05:30:07;;;;;;;;;3.00;3.00;;;;;20.01;54.15;101461.80;112090;1249;20386;-38
2023/01/26 05:32:34;;;;;;;;;4.00;4.00;;;;;20.01;54.06;101465.92;112088;1250;19325;-39
2023/01/26 05:35:01;;;;;;;;;4.00;3.67;;;;;20.01;54.31;101464.52;112114;1249;19683;-39
2023/01/26 05:37:29;;;;;;;;;5.33;4.00;;;;;20.00;54.46;101467.67;112078;1264;19962;-38
2023/01/26 05:39:56;;;;;;;;;7.00;6.00;;;;;19.99;54.51;101471.23;112092;1249;21930;-37
2023/01/26 05:42:23;;;;;;;;;3.50;3.00;;;;;20.00;54.40;101466.05;112086;1249;19639;-38
2023/01/26 05:44:51;;;;;;;;;4.00;4.00;;;;;20.01;54.58;101467.38;112104;1257;20094;-38
2023/01/26 05:47:18;;;;;;;;;20.00;18.50;;;;;20.03;54.63;101462.66;112110;1256;19359;-38
2023/01/26 05:49:45;;;;;;;;;93.00;69.00;;;;;20.05;54.71;101463.23;112052;1264;18353;-39
2023/01/26 05:52:13;;;;;;;;;96.50;73.00;;;;;20.10;55.38;101463.08;112083;1250;20610;-38
2023/01/26 05:54:40;;;;;;;;;85.50;66.00;;;;;20.15;55.62;101462.17;112055;1257;20791;-37
2023/01/26 05:57:07;;;;;;;;;71.50;59.00;;;;;20.16;55.61;101460.61;112085;1249;20057;-39
2023/01/26 05:59:35;;;;;;;;;70.33;55.33;;;;;20.15;55.87;101461.14;112049;1264;20069;-39
2023/01/26 06:02:02;;;;;;;;;60.00;47.00;;;;;20.13;55.76;101457.52;112065;1251;20794;-38
2023/01/26 06:04:29;;;;;;;;;51.00;45.00;;;;;20.12;55.75;101458.86;112007;1251;20058;-38
2023/01/26 06:06:57;;;;;;;;;37.00;36.00;;;;;20.10;56.08;101461.05;112083;1249;20086;-39
2023/01/26 06:09:24;;;;;;;;;34.00;31.00;;;;;20.10;55.94;101462.36;112099;1249;20766;-38
2023/01/26 06:11:51;;;;;;;;;27.00;24.50;;;;;20.11;56.04;101461.54;112094;1264;18664;-37
2023/01/26 06:14:19;;;;;;;;;27.00;22.00;;;;;20.09;56.01;101460.58;112189;1264;18690;-38
2023/01/26 06:16:46;;;;;;;;;23.00;19.67;;;;;20.07;55.96;101452.64;112192;1256;20684;-40
2023/01/26 06:19:13;;;;;;;;;21.00;19.00;;;;;20.07;56.12;101452.68;112096;1264;19869;-37
2023/01/26 06:21:40;;;;;;;;;21.50;18.50;;;;;20.07;55.99;101458.29;112109;1250;20171;-38
2023/01/26 06:24:08;;;;;;;;;21.00;19.00;;;;;20.06;55.87;101460.42;112076;1264;19357;-38
2023/01/26 06:26:35;;;;;;;;;17.00;16.00;;;;;20.07;56.05;101459.38;112070;1264;20221;-38
2023/01/26 06:29:03;;;;;;;;;18.00;18.00;;;;;20.07;55.90;101457.06;112080;1249;20493;-38
2023/01/26 06:31:30;;;;;;;;;13.00;12.50;;;;;20.07;56.05;101454.54;112067;1264;20511;-38
2023/01/26 06:33:57;;;;;;;;;12.50;12.00;;;;;20.06;56.07;101459.13;112097;1264;19934;-38
2023/01/26 06:36:25;;;;;;;;;14.00;12.50;;;;;20.06;56.08;101460.39;112087;1264;18676;-38
2023/01/26 06:38:52;;;;;;;;;13.00;12.00;;;;;20.05;56.02;101461.20;112074;1264;19452;-38
2023/01/26 06:41:20;;;;;;;;;11.50;11.00;;;;;20.05;55.98;101465.23;112088;1249;20021;-38
2023/01/26 06:43:47;;;;;;;;;12.00;10.00;;;;;20.05;56.03;101468.70;112054;1264;18643;-37
2023/01/26 06:46:14;;;;;;;;;10.00;10.00;;;;;20.05;55.97;101467.11;112069;1264;19445;-39
2023/01/26 06:48:42;;;;;;;;;11.67;9.00;;;;;20.02;56.06;101467.89;112076;1250;20023;-38
2023/01/26 06:51:09;;;;;;;;;9.50;9.00;;;;;20.01;56.07;101469.05;112079;1250;18766;-37
2023/01/26 06:53:36;;;;;;;;;11.33;9.67;;;;;20.01;56.13;101470.30;112075;1264;19345;-38
2023/01/26 06:56:04;;;;;;;;;10.00;9.00;;;;;20.00;56.19;101470.71;112060;1248;19541;-38
2023/01/26 06:58:31;;;;;;;;;9.00;9.00;;;;;20.00;56.28;101470.60;112092;1264;20192;-38
2023/01/26 07:00:58;;;;;;;;;9.50;9.00;;;;;20.01;56.24;101476.26;112074;1264;19381;-38
2023/01/26 07:03:26;;;;;;;;;10.00;10.00;;;;;20.05;56.05;101475.95;112096;1264;19482;-38
2023/01/26 07:05:53;;;;;;;;;9.00;7.00;;;;;20.09;55.95;101476.44;112082;1264;20174;-38
2023/01/26 07:08:21;;;;;;;;;7.00;7.00;;;;;20.09;56.30;101473.71;112057;1264;19352;-38
2023/01/26 07:10:48;;;;;;;;;7.00;7.00;;;;;20.10;56.23;101473.98;112076;1251;19597;-37
2023/01/26 07:13:15;;;;;;;;;10.67;9.00;;;;;20.10;56.09;101476.14;112059;1249;21168;-38
2023/01/26 07:15:43;;;;;;;;;7.00;7.00;;;;;20.12;56.30;101472.66;112091;1264;19320;-38
2023/01/26 07:18:10;;;;;;;;;7.00;7.00;;;;;20.13;56.10;101468.23;112071;1264;19918;-37
2023/01/26 07:20:38;;;;;;;;;9.00;9.00;;;;;20.13;56.42;101464.23;112095;1264;18594;-38
2023/01/26 07:23:05;;;;;;;;;10.00;9.00;;;;;20.13;56.57;101468.02;112111;1249;19373;-38
2023/01/26 07:25:32;;;;;;;;;9.67;7.67;;;;;20.13;56.74;101466.55;112110;1264;18149;-39
2023/01/26 07:28:00;;;;;;;;;6.00;6.00;;;;;20.12;57.08;101468.31;112087;1250;20097;-38
2023/01/26 07:30:27;;;;;;;;;9.00;7.00;;;;;20.10;57.23;101471.27;112100;1249;19621;-38
2023/01/26 07:32:54;;;;;;;;;10.00;10.00;;;;;20.09;56.88;101469.73;112047;1264;20616;-39
2023/01/26 07:35:22;;;;;;;;;9.00;6.67;;;;;20.10;56.42;101471.98;112053;1250;20191;-38
2023/01/26 07:37:49;;;;;;;;;7.00;7.00;;;;;20.07;56.66;101469.55;112073;1249;20947;-37
2023/01/26 07:40:17;;;;;;;;;8.00;7.00;;;;;20.07;56.53;101469.89;112079;1264;19633;-38
2023/01/26 07:42:45;;;;;;;;;7.00;7.00;;;;;20.06;56.64;101463.48;112096;1249;20844;-38
2023/01/26 07:45:12;;;;;;;;;9.00;7.00;;;;;20.05;56.65;101462.85;111472;1264;783243;-38
2023/01/26 07:47:40;;;;;;;;;9.50;8.00;;;;;20.04;56.72;101465.86;112050;1249;19650;-38
2023/01/26 07:50:07;;;;;;;;;6.00;6.00;;;;;20.04;56.49;101463.71;112104;1250;20050;-38
2023/01/26 07:52:35;;;;;;;;;9.00;9.00;;;;;20.03;56.61;101462.12;112080;1251;20913;-38
2023/01/26 07:55:02;;;;;;;;;6.50;6.00;;;;;20.05;56.49;101460.38;112100;1251;20837;-38
2023/01/26 07:57:30;;;;;;;;;12.00;9.00;;;;;20.06;56.32;101457.13;112104;1264;18606;-38
2023/01/26 07:59:57;;;;;;;;;8.00;8.00;;;;;20.09;56.27;101453.03;112098;1250;22026;-38
2023/01/26 08:02:24;;;;;;;;;13.00;10.00;;;;;20.07;55.94;101451.41;112068;1249;20011;-37
2023/01/26 08:04:52;;;;;;;;;12.00;10.00;;;;;20.07;55.57;101451.63;112083;1264;18698;-38
2023/01/26 08:07:19;;;;;;;;;10.00;9.67;;;;;20.08;55.72;101452.37;112070;1264;20733;-38
2023/01/26 08:09:46;;;;;;;;;9.50;9.00;;;;;20.07;55.51;101453.60;112080;1264;21020;-38
2023/01/26 08:12:14;;;;;;;;;9.00;9.00;;;;;20.06;55.69;101455.38;112036;1264;18585;-38
2023/01/26 08:14:41;;;;;;;;;9.00;7.00;;;;;20.03;55.77;101455.63;112110;1249;21788;-38
2023/01/26 08:17:08;;;;;;;;;10.00;9.50;;;;;20.03;55.63;101460.55;112064;1264;19588;-38
2023/01/26 08:19:36;;;;;;;;;9.33;6.33;;;;;20.01;55.74;101457.04;112076;1256;18837;-41
2023/01/26 08:22:03;;;;;;;;;15.00;9.00;;;;;20.04;55.48;101461.30;112080;1249;20998;-39
2023/01/26 08:24:31;;;;;;;;;8.00;7.00;;;;;20.04;55.34;101458.95;112060;1249;19638;-39
2023/01/26 08:26:58;;;;;;;;;7.00;7.00;;;;;20.05;55.44;101459.48;112071;1264;19903;-39
2023/01/26 08:29:25;;;;;;;;;9.00;9.00;;;;;20.05;55.37;101461.60;112051;1264;19439;-38
2023/01/26 08:31:53;;;;;;;;;12.50;9.50;;;;;20.05;55.30;101461.36;112047;1264;20689;-38
2023/01/26 08:34:21;;;;;;;;;12.50;10.00;;;;;20.08;55.28;101466.86;112063;1257;19989;-38
2023/01/26 08:36:48;;;;;;;;;9.00;7.67;;;;;20.09;55.56;101464.65;112046;1264;19357;-37
2023/01/26 08:39:16;;;;;;;;;9.00;9.00;;;;;20.05;55.06;101462.00;112057;1264;19880;-38
2023/01/26 08:41:43;;;;;;;;;13.00;12.00;;;;;20.06;55.07;101462.63;112067;1264;18632;-38
2023/01/26 08:44:11;;;;;;;;;10.00;9.00;;;;;20.07;55.08;101461.42;112091;1249;21122;-38
2023/01/26 08:46:38;;;;;;;;;10.00;9.00;;;;;20.06;54.88;101461.53;112068;1250;19869;-38
2023/01/26 08:49:05;;;;;;;;;7.00;6.00;;;;;20.04;55.28;101460.43;112068;1250;20009;-38
2023/01/26 08:51:33;;;;;;;;;9.00;7.00;;;;;20.03;55.15;101463.38;112139;1264;21027;-38
2023/01/26 08:54:00;;;;;;;;;9.00;9.00;;;;;20.06;55.49;101468.71;112132;1249;20056;-39
2023/01/26 08:56:28;;;;;;;;;7.00;6.00;;;;;20.10;55.44;101469.24;112058;1264;18667;-39
2023/01/26 08:58:55;;;;;;;;;27.00;21.00;;;;;20.13;55.53;101470.90;112075;1251;20921;-40
2023/01/26 09:01:22;;;;;;;;;45.00;36.67;;;;;20.14;55.59;101475.23;112044;1264;19509;-39
2023/01/26 09:03:51;;;;;;;;;64.50;49.00;;;;;20.13;55.47;101474.74;112060;1249;20202;-40
2023/01/26 09:06:19;;;;;;;;;76.33;57.00;;;;;20.14;55.34;101471.73;112064;1264;19464;-39
2023/01/26 09:08:46;;;;;;;;;84.00;61.50;;;;;20.14;55.59;101468.26;112095;1264;18582;-39
2023/01/26 09:11:14;;;;;;;;;81.00;59.67;;;;;20.14;55.56;101471.35;112070;1264;18925;-39
2023/01/26 09:13:41;;;;;;;;;72.00;52.00;;;;;20.14;55.48;101471.04;112093;1249;20792;-44
2023/01/26 09:16:09;;;;;;;;;70.50;52.50;;;;;20.14;55.51;101472.13;112086;1249;20042;-40
2023/01/26 09:18:36;;;;;;;;;58.50;46.00;;;;;20.13;55.42;101468.21;112066;1257;18744;-37
2023/01/26 09:21:03;;;;;;;;;61.00;47.50;;;;;20.13;55.48;101465.15;112043;1264;20674;-37
2023/01/26 09:23:31;;;;;;;;;54.50;45.50;;;;;20.14;55.34;101459.03;112063;1264;18593;-39
2023/01/26 09:25:58;;;;;;;;;49.00;37.00;;;;;20.16;55.61;101457.77;112066;1249;21670;-37
2023/01/26 09:28:25;;;;;;;;;31.00;30.00;;;;;20.18;55.60;101460.13;112055;1264;20714;-38
2023/01/26 09:30:53;;;;;;;;;34.00;28.00;;;;;20.22;55.42;101459.08;112070;1264;20204;-37
2023/01/26 09:33:21;;;;;;;;;30.00;28.00;;;;;20.22;55.86;101455.17;112058;1264;18898;-38
2023/01/26 09:35:49;;;;;;;;;30.00;27.00;;;;;20.23;55.82;101450.66;112058;1257;21024;-38
2023/01/26 09:38:16;;;;;;;;;31.00;24.00;;;;;20.22;55.53;101444.94;112074;1264;18574;-36
2023/01/26 09:40:43;;;;;;;;;22.00;19.00;;;;;20.20;55.75;101437.89;112072;1249;20058;-37
2023/01/26 09:43:11;;;;;;;;;21.00;19.00;;;;;20.20;55.70;101438.46;112071;1250;20921;-38
2023/01/26 09:45:38;;;;;;;;;24.50;21.00;;;;;20.18;55.98;101438.27;112094;1264;19888;-36
2023/01/26 09:48:05;;;;;;;;;25.00;21.00;;;;;20.18;55.86;101439.05;112050;1249;20062;-37
2023/01/26 09:50:33;;;;;;;;;22.00;19.00;;;;;20.17;55.68;101440.59;112048;1249;20850;-38
2023/01/26 09:53:00;;;;;;;;;24.00;21.00;;;;;20.18;55.82;101438.63;112058;1264;19884;-36
2023/01/26 09:55:29;;;;;;;;;18.67;18.00;;;;;20.17;55.68;101433.28;112060;1249;20160;-37
2023/01/26 09:57:56;;;;;;;;;24.50;19.00;;;;;20.18;55.86;101430.13;112073;1264;20731;-37
2023/01/26 10:00:23;;;;;;;;;17.00;16.00;;;;;20.18;55.61;101425.09;112065;1264;21048;-37
2023/01/26 10:02:51;;;;;;;;;21.50;17.00;;;;;20.18;55.53;101424.37;112083;1249;20296;-37
2023/01/26 10:05:19;;;;;;;;;19.00;16.00;;;;;20.20;55.72;101426.86;112072;1249;20764;-38
2023/01/26 10:07:46;;;;;;;;;21.00;16.00;;;;;20.20;55.76;101423.23;112079;1264;21051;-38
2023/01/26 10:10:14;;;;;;;;;15.00;12.00;;;;;20.20;55.54;101425.06;112069;1264;18907;-37
2023/01/26 10:12:41;;;;;;;;;15.00;13.00;;;;;20.19;55.58;101421.52;112076;1249;20585;-38
2023/01/26 10:15:09;;;;;;;;;13.67;13.33;;;;;20.19;55.52;101420.98;112031;1264;21018;-37
2023/01/26 10:17:36;;;;;;;;;18.00;15.67;;;;;20.19;55.73;101419.18;112084;1264;19997;-37
2023/01/26 10:20:05;;;;;;;;;19.00;17.00;;;;;20.19;55.53;101414.78;112048;1264;21194;-37
2023/01/26 10:22:32;;;;;;;;;12.50;10.00;;;;;20.19;55.67;101414.64;112066;1249;19888;-38
2023/01/26 10:24:59;;;;;;;;;13.00;12.00;;;;;20.19;55.60;101414.98;112069;1264;20053;-36
2023/01/26 10:27:27;;;;;;;;;18.00;15.00;;;;;20.19;55.72;101409.17;111879;1259;20768;-37
2023/01/26 10:29:54;;;;;;;;;12.00;10.00;;;;;20.21;56.04;101407.34;112080;1264;21353;-38
2023/01/26 10:32:22;;;;;;;;;14.00;13.00;;;;;20.22;56.21;101408.52;112111;1264;18855;-37
2023/01/26 10:34:49;;;;;;;;;12.00;11.00;;;;;20.22;56.31;101405.80;112090;1260;20654;-36
2023/01/26 10:37:16;;;;;;;;;18.00;13.00;;;;;20.21;56.34;101401.90;112081;1250;20020;-37
2023/01/26 10:39:44;;;;;;;;;12.00;12.00;;;;;20.18;56.56;101403.66;112088;1264;20140;-36
2023/01/26 10:42:11;;;;;;;;;12.00;9.00;;;;;20.18;56.71;101399.41;112101;1249;21115;-37
2023/01/26 10:44:39;;;;;;;;;15.00;12.00;;;;;20.21;56.67;101392.82;112087;1264;18569;-37
2023/01/26 10:47:06;;;;;;;;;16.50;11.00;;;;;20.23;57.40;101391.30;112125;1264;21382;-36
2023/01/26 10:49:33;;;;;;;;;18.00;13.00;;;;;20.25;57.99;101389.08;112072;1264;19300;-37
2023/01/26 10:52:01;;;;;;;;;15.50;10.00;;;;;20.27;57.96;101389.98;112091;1249;21548;-37
2023/01/26 10:54:28;;;;;;;;;13.00;12.00;;;;;20.28;58.44;101392.04;112067;1249;21668;-36
2023/01/26 10:56:56;;;;;;;;;12.00;12.00;;;;;20.29;58.41;101392.55;112083;1257;19364;-37
2023/01/26 10:59:23;;;;;;;;;12.00;9.00;;;;;20.30;58.37;101392.59;112106;1249;20343;-35
2023/01/26 11:01:50;;;;;;;;;8.00;7.00;;;;;20.32;58.92;101387.88;112085;1264;18647;-37
2023/01/26 11:04:18;;;;;;;;;11.67;9.00;;;;;20.32;59.20;101386.65;112105;1264;19381;-37
2023/01/26 11:06:46;;;;;;;;;10.00;9.00;;;;;20.30;59.38;101384.66;112107;1249;19602;-36
2023/01/26 11:09:13;;;;;;;;;7.00;7.00;;;;;20.29;59.31;101384.39;112075;1249;20070;-37
2023/01/26 11:11:40;;;;;;;;;6.00;6.00;;;;;20.26;58.99;101380.98;112082;1250;19433;-36
2023/01/26 11:14:08;;;;;;;;;10.00;9.00;;;;;20.27;58.95;101386.92;112075;1264;18540;-37
2023/01/26 11:16:35;;;;;;;;;12.00;10.00;;;;;20.25;58.63;101384.35;112071;1264;18640;-37
2023/01/26 11:19:03;;;;;;;;;10.00;6.00;;;;;20.25;58.59;101379.27;112073;1264;19347;-36
2023/01/26 11:21:30;;;;;;;;;7.00;6.00;;;;;20.23;58.80;101378.80;112082;1250;19961;-36
2023/01/26 11:23:58;;;;;;;;;9.00;9.00;;;;;20.23;58.66;101373.48;112118;1249;18617;-38
2023/01/26 11:26:25;;;;;;;;;9.50;9.00;;;;;20.22;58.63;101368.70;112119;1257;22231;-36
2023/01/26 11:28:53;;;;;;;;;6.33;6.00;;;;;20.21;58.71;101369.06;112177;1250;19713;-36
2023/01/26 11:31:21;;;;;;;;;10.00;7.00;;;;;20.19;58.41;101370.72;112202;1250;20062;-37
2023/01/26 11:33:48;;;;;;;;;9.00;6.00;;;;;20.19;58.39;101368.38;112093;1264;20864;-36
2023/01/26 11:36:16;;;;;;;;;9.00;9.00;;;;;20.17;58.62;101363.50;112108;1264;18666;-37
2023/01/26 11:38:43;;;;;;;;;7.67;7.00;;;;;20.15;58.53;101360.00;112129;1249;20052;-36
2023/01/26 11:41:11;;;;;;;;;7.00;6.50;;;;;20.15;58.34;101362.59;112089;1257;20735;-37
2023/01/26 11:43:38;;;;;;;;;7.00;6.33;;;;;20.14;58.35;101358.19;112133;1264;18424;-37
2023/01/26 11:46:05;;;;;;;;;6.00;6.00;;;;;20.12;58.07;101355.63;112073;1264;21102;-37
2023/01/26 11:48:33;;;;;;;;;6.50;5.00;;;;;20.11;58.16;101353.38;112091;1250;21977;-37
2023/01/26 11:51:00;;;;;;;;;6.00;6.00;;;;;20.11;58.02;101352.29;112110;1249;19645;-37
2023/01/26 11:53:28;;;;;;;;;7.00;6.00;;;;;20.11;57.90;101350.89;112087;1257;19991;-37
2023/01/26 11:55:55;;;;;;;;;10.00;7.00;;;;;20.09;57.97;101344.67;112091;1264;21800;-40
2023/01/26 11:58:22;;;;;;;;;7.00;6.00;;;;;20.10;57.78;101344.44;112083;1264;19562;-37
2023/01/26 12:00:50;;;;;;;;;9.50;7.00;;;;;20.09;57.80;101336.55;112076;1264;20107;-37
2023/01/26 12:03:17;;;;;;;;;7.00;6.50;;;;;20.09;57.57;101338.17;112087;1264;20666;-38